Astatula, Florida
Current Conditions -  °F | °C
As of 11:53 PM on Wednesday 26 Nov 2014 (Local Time) from KLEE Reporting Station
Clear Clear  
Wind Chill: 50°   Ceiling: Unl
Heat Index: 50°   Visibility: 10mi
Dew Point: 45°   Wind: 6mph
Humidity: 83%   Direction: 310°NW
Pressure: 30.23"   Gusts: NA
Location:  28.71°N, 81.73°W
Report Text: KLEE 270453Z AUTO 31005KT 10SM CLR 10/07 A3023 RMK AO2 SLP237 T01000072 402170094
Loading
Personal Weather Stations






























Interactive Weather Map New forecast layout! Learn more

10-Day Weather Forecast

Advertisements
Track Severe Weather on mobile